createdAt,value
2023-04-26T00:01:43.207Z,10.02
2023-04-26T00:04:10.278Z,10.01
2023-04-26T00:06:37.572Z,10.15
2023-04-26T00:09:05.266Z,10.37
2023-04-26T00:11:32.141Z,9.77
2023-04-26T00:13:59.751Z,9.88
2023-04-26T00:16:26.668Z,9.79
2023-04-26T00:18:54.721Z,9.31
2023-04-26T00:21:21.807Z,9.34
2023-04-26T00:23:48.773Z,10.00
2023-04-26T00:26:15.674Z,9.70
2023-04-26T00:28:42.662Z,9.65
2023-04-26T00:31:16.869Z,9.15
2023-04-26T00:33:44.368Z,9.27
2023-04-26T00:36:11.418Z,9.36
2023-04-26T00:38:38.228Z,9.57
2023-04-26T00:41:05.652Z,9.19
2023-04-26T00:43:32.494Z,9.67
2023-04-26T00:45:59.183Z,9.18
2023-04-26T00:48:26.467Z,9.54
2023-04-26T00:50:53.366Z,9.59
2023-04-26T00:53:21.061Z,9.67
2023-04-26T00:55:48.266Z,9.04
2023-04-26T00:58:15.142Z,9.01
2023-04-26T01:00:41.815Z,8.77
2023-04-26T01:03:08.950Z,8.83
2023-04-26T01:05:36.938Z,9.55
2023-04-26T01:08:04.956Z,9.10
2023-04-26T01:10:35.448Z,9.20
2023-04-26T01:13:06.091Z,9.47
2023-04-26T01:15:33.716Z,9.50
2023-04-26T01:18:00.764Z,9.77
2023-04-26T01:20:27.742Z,9.73
2023-04-26T01:22:54.637Z,9.37
2023-04-26T01:25:21.641Z,9.45
2023-04-26T01:27:48.496Z,9.04
2023-04-26T01:30:15.173Z,8.98
2023-04-26T01:32:42.071Z,8.92
2023-04-26T01:35:09.529Z,9.63
2023-04-26T01:37:36.491Z,9.05
2023-04-26T01:40:06.552Z,9.22
2023-04-26T01:42:33.463Z,9.31
2023-04-26T01:45:00.362Z,9.18
2023-04-26T01:47:27.766Z,9.23
2023-04-26T01:49:54.708Z,8.64
2023-04-26T01:52:22.839Z,8.70
2023-04-26T01:54:49.751Z,8.80
2023-04-26T01:57:16.763Z,9.12
2023-04-26T01:59:43.682Z,9.37
2023-04-26T02:02:10.777Z,9.29
2023-04-26T02:04:37.832Z,8.61
2023-04-26T02:07:04.704Z,8.22
2023-04-26T02:09:31.435Z,8.78
2023-04-26T02:11:58.287Z,8.97
2023-04-26T02:14:25.083Z,8.99
2023-04-26T02:16:52.103Z,8.97
2023-04-26T02:19:19.162Z,8.57
2023-04-26T02:21:56.469Z,9.00
2023-04-26T02:24:23.970Z,8.24
2023-04-26T02:26:52.008Z,8.16
2023-04-26T02:29:21.219Z,8.08
2023-04-26T02:31:53.815Z,8.70
2023-04-26T02:34:20.866Z,8.44
2023-04-26T02:36:48.808Z,8.24
2023-04-26T02:39:15.790Z,8.50
2023-04-26T02:41:42.640Z,8.35
2023-04-26T02:44:09.357Z,8.44
2023-04-26T02:46:36.329Z,9.49
2023-04-26T02:49:03.346Z,8.98
2023-04-26T02:51:30.277Z,9.03
2023-04-26T02:53:57.148Z,8.37
2023-04-26T02:56:24.165Z,8.65
2023-04-26T02:58:51.646Z,8.09
2023-04-26T03:01:19.051Z,8.95
2023-04-26T03:03:45.982Z,9.19
2023-04-26T03:06:12.968Z,8.96
2023-04-26T03:08:39.624Z,8.33
2023-04-26T03:11:07.026Z,8.94
2023-04-26T03:13:33.907Z,8.82
2023-04-26T03:16:00.867Z,8.88
2023-04-26T03:18:27.780Z,8.43
2023-04-26T03:20:54.647Z,8.32
2023-04-26T03:23:24.468Z,8.59
2023-04-26T03:25:51.944Z,8.05
2023-04-26T03:28:18.819Z,8.44
2023-04-26T03:30:46.056Z,9.10
2023-04-26T03:33:13.816Z,8.76
2023-04-26T03:35:40.902Z,8.30
2023-04-26T03:38:07.792Z,8.96
2023-04-26T03:40:34.714Z,9.25
2023-04-26T03:43:01.788Z,9.19
2023-04-26T03:45:28.756Z,8.75
2023-04-26T03:47:56.913Z,8.88
2023-04-26T03:50:23.812Z,8.47
2023-04-26T03:52:50.616Z,8.32
2023-04-26T03:55:17.545Z,8.66
2023-04-26T03:57:44.392Z,8.52
2023-04-26T04:00:14.476Z,9.09
2023-04-26T04:02:41.971Z,8.64
2023-04-26T04:05:09.626Z,8.56
2023-04-26T04:07:36.764Z,9.62
2023-04-26T04:10:04.199Z,9.62
2023-04-26T04:12:31.156Z,10.00
2023-04-26T04:14:58.055Z,9.79
2023-04-26T04:17:24.948Z,10.16
2023-04-26T04:19:51.829Z,9.96
2023-04-26T04:22:18.680Z,10.37
2023-04-26T04:24:45.747Z,9.88
2023-04-26T04:27:12.622Z,8.96
2023-04-26T04:29:41.078Z,9.03
2023-04-26T04:32:08.212Z,9.43
2023-04-26T04:34:36.415Z,9.49
2023-04-26T04:37:04.461Z,9.65
2023-04-26T04:39:31.469Z,9.88
2023-04-26T04:41:58.843Z,10.00
2023-04-26T04:44:27.150Z,10.32
2023-04-26T04:46:54.062Z,10.68
2023-04-26T04:49:21.071Z,10.30
2023-04-26T04:51:48.215Z,10.01
2023-04-26T04:54:16.808Z,10.55
2023-04-26T04:56:44.699Z,10.81
2023-04-26T04:59:11.996Z,10.17
2023-04-26T05:01:38.938Z,10.76
2023-04-26T05:04:07.008Z,11.93
2023-04-26T05:06:34.198Z,12.62
2023-04-26T05:09:01.892Z,12.43
2023-04-26T05:11:28.775Z,12.71
2023-04-26T05:13:55.966Z,13.35
2023-04-26T05:16:23.112Z,13.89
2023-04-26T05:18:50.093Z,13.68
2023-04-26T05:21:17.191Z,13.67
2023-04-26T05:23:44.099Z,13.12
2023-04-26T05:26:15.825Z,12.66
2023-04-26T05:28:42.969Z,13.44
2023-04-26T05:31:11.424Z,13.37
2023-04-26T05:33:38.684Z,14.21
2023-04-26T05:36:06.084Z,15.14
2023-04-26T05:38:32.983Z,14.79
2023-04-26T05:40:59.822Z,14.47
2023-04-26T05:43:26.658Z,14.77
2023-04-26T05:45:54.629Z,14.06
2023-04-26T05:48:23.006Z,14.26
2023-04-26T05:50:50.760Z,13.68
2023-04-26T05:53:19.249Z,13.97
2023-04-26T05:55:46.247Z,13.82
2023-04-26T05:58:13.214Z,14.77
2023-04-26T06:00:40.152Z,14.39
2023-04-26T06:03:07.362Z,13.36
2023-04-26T06:05:34.560Z,13.79
2023-04-26T06:08:01.875Z,13.48
2023-04-26T06:10:29.371Z,13.62
2023-04-26T06:12:56.453Z,13.48
2023-04-26T06:15:23.330Z,12.70
2023-04-26T06:17:50.246Z,13.10
2023-04-26T06:20:17.148Z,12.87
2023-04-26T06:22:44.021Z,13.07
2023-04-26T06:25:11.050Z,12.99
2023-04-26T06:27:39.413Z,12.88
2023-04-26T06:30:08.044Z,12.40
2023-04-26T06:32:35.083Z,13.29
2023-04-26T06:35:02.169Z,13.59
2023-04-26T06:37:29.045Z,13.92
2023-04-26T06:39:55.952Z,12.92
2023-04-26T06:42:22.841Z,12.28
2023-04-26T06:44:49.746Z,12.77
2023-04-26T06:47:16.603Z,13.27
2023-04-26T06:49:43.601Z,12.02
2023-04-26T06:52:10.539Z,12.13
2023-04-26T06:54:45.932Z,12.37
2023-04-26T06:57:16.898Z,12.11
2023-04-26T06:59:43.560Z,11.96
2023-04-26T07:02:10.585Z,12.21
2023-04-26T07:04:37.750Z,12.77
2023-04-26T07:07:04.854Z,13.52
2023-04-26T07:09:31.896Z,12.68
2023-04-26T07:11:58.850Z,13.27
2023-04-26T07:14:25.707Z,14.03
2023-04-26T07:16:52.552Z,13.80
2023-04-26T07:19:19.928Z,13.63
2023-04-26T07:21:46.770Z,12.73
2023-04-26T07:24:13.891Z,12.54
2023-04-26T07:26:41.566Z,13.32
2023-04-26T07:29:08.450Z,13.67
2023-04-26T07:31:36.130Z,13.08
2023-04-26T07:34:03.247Z,13.25
2023-04-26T07:36:30.177Z,13.69
2023-04-26T07:38:58.042Z,13.56
2023-04-26T07:41:24.920Z,15.28
2023-04-26T07:43:51.996Z,14.61
2023-04-26T07:46:19.225Z,14.53
2023-04-26T07:48:46.142Z,14.41
2023-04-26T07:51:13.597Z,15.11
2023-04-26T07:53:41.360Z,13.61
2023-04-26T07:56:09.107Z,13.68
2023-04-26T07:58:37.042Z,13.84
2023-04-26T08:01:04.395Z,13.27
2023-04-26T08:03:31.730Z,14.71
2023-04-26T08:06:02.307Z,14.52
2023-04-26T08:08:29.365Z,13.74
2023-04-26T08:10:56.583Z,12.83
2023-04-26T08:13:23.446Z,13.11
2023-04-26T08:15:50.435Z,12.44
2023-04-26T08:18:17.767Z,12.81
2023-04-26T08:20:44.771Z,13.53
2023-04-26T08:23:11.700Z,13.18
2023-04-26T08:25:38.670Z,12.69
2023-04-26T08:28:05.662Z,12.84
2023-04-26T08:30:32.623Z,13.23
2023-04-26T08:32:59.556Z,13.26
2023-04-26T08:35:26.551Z,13.34
2023-04-26T08:37:53.406Z,13.27
2023-04-26T08:40:24.999Z,14.08
2023-04-26T08:42:53.740Z,14.64
2023-04-26T08:45:21.747Z,15.42
2023-04-26T08:47:50.592Z,15.90
2023-04-26T08:50:21.081Z,16.02
2023-04-26T08:52:50.528Z,15.02
2023-04-26T08:55:18.664Z,14.31
2023-04-26T08:57:49.951Z,15.05
2023-04-26T09:00:18.369Z,15.37
2023-04-26T09:02:50.329Z,15.38
2023-04-26T09:05:17.661Z,15.10
2023-04-26T09:07:48.198Z,15.13
2023-04-26T09:10:22.560Z,14.44
2023-04-26T09:12:53.761Z,13.43
2023-04-26T09:15:24.758Z,14.00
2023-04-26T09:17:52.356Z,14.91
2023-04-26T09:20:31.303Z,16.42
2023-04-26T09:23:06.844Z,16.94
2023-04-26T09:25:34.135Z,16.18
2023-04-26T09:28:02.225Z,16.31
2023-04-26T09:30:29.259Z,15.37
2023-04-26T09:32:58.463Z,16.81
2023-04-26T09:35:29.338Z,16.93
2023-04-26T09:38:09.701Z,17.07
2023-04-26T09:40:41.902Z,17.75
2023-04-26T09:43:12.623Z,16.81
2023-04-26T09:45:46.655Z,16.80
2023-04-26T09:48:18.030Z,15.44
2023-04-26T09:50:48.236Z,14.53
2023-04-26T09:53:31.212Z,13.65
2023-04-26T09:56:15.867Z,13.90
2023-04-26T09:58:52.610Z,13.20
2023-04-26T10:01:20.335Z,13.73
2023-04-26T10:03:47.789Z,13.12
2023-04-26T10:06:15.060Z,13.06
2023-04-26T10:08:42.167Z,14.55
2023-04-26T10:11:13.125Z,14.43
2023-04-26T10:13:41.745Z,14.00
2023-04-26T10:16:10.237Z,14.24
2023-04-26T10:18:37.860Z,14.72
2023-04-26T10:21:20.798Z,14.99
2023-04-26T10:23:49.292Z,15.50
2023-04-26T10:26:49.745Z,16.06
2023-04-26T10:29:16.693Z,16.99
2023-04-26T10:32:02.390Z,16.65
2023-04-26T10:34:33.370Z,16.83
2023-04-26T10:37:10.401Z,16.75
2023-04-26T10:39:38.236Z,15.03
2023-04-26T10:42:37.851Z,14.92
2023-04-26T10:45:26.081Z,16.27
2023-04-26T10:48:27.965Z,16.05
2023-04-26T10:51:12.219Z,14.74
2023-04-26T10:53:44.917Z,14.04
2023-04-26T10:56:41.297Z,14.15
2023-04-26T11:01:42.200Z,14.71
2023-04-26T11:04:10.698Z,15.30
2023-04-26T11:07:07.744Z,16.35
2023-04-26T11:09:42.530Z,15.76
2023-04-26T11:12:14.001Z,16.03
2023-04-26T11:14:46.343Z,15.80
2023-04-26T11:17:13.413Z,15.81
2023-04-26T11:19:41.651Z,15.38
2023-04-26T11:22:08.854Z,15.43
2023-04-26T11:24:44.947Z,15.36
2023-04-26T11:27:12.304Z,13.42
2023-04-26T11:29:39.568Z,13.69
2023-04-26T11:32:07.220Z,14.37
2023-04-26T11:34:35.676Z,15.14
2023-04-26T11:37:05.119Z,15.26
2023-04-26T11:39:36.166Z,13.65
2023-04-26T11:42:10.298Z,13.96
2023-04-26T11:44:37.889Z,15.56
2023-04-26T11:47:06.220Z,15.52
2023-04-26T11:49:33.915Z,16.29
2023-04-26T11:52:01.723Z,17.19
2023-04-26T11:54:33.498Z,17.65
2023-04-26T11:57:00.501Z,15.95
2023-04-26T11:59:29.613Z,14.18
2023-04-26T12:02:00.741Z,14.17
2023-04-26T12:04:30.423Z,13.18
2023-04-26T12:06:58.153Z,13.52
2023-04-26T12:09:28.097Z,14.27
2023-04-26T12:12:02.230Z,13.29
2023-04-26T12:14:37.291Z,13.29
2023-04-26T12:17:06.409Z,13.70
2023-04-26T12:19:40.309Z,14.54
2023-04-26T12:22:07.934Z,14.69
2023-04-26T12:24:37.098Z,14.62
2023-04-26T12:27:06.255Z,15.53
2023-04-26T12:29:33.212Z,14.99
2023-04-26T12:32:00.512Z,14.57
2023-04-26T12:34:27.550Z,13.75
2023-04-26T12:36:55.022Z,14.82
2023-04-26T12:39:21.897Z,14.85
2023-04-26T12:41:49.364Z,15.51
2023-04-26T12:44:16.350Z,16.03
2023-04-26T12:46:43.321Z,16.20
2023-04-26T12:49:10.358Z,16.70
2023-04-26T12:51:37.214Z,16.68
2023-04-26T12:54:04.268Z,17.01
2023-04-26T12:56:31.213Z,16.66
2023-04-26T12:58:58.127Z,17.20
2023-04-26T13:01:25.196Z,16.87
2023-04-26T13:03:52.360Z,15.15
2023-04-26T13:06:19.357Z,15.48
2023-04-26T13:08:46.256Z,15.34
2023-04-26T13:11:13.144Z,14.49
2023-04-26T13:13:43.708Z,13.40
2023-04-26T13:16:13.046Z,14.51
2023-04-26T13:18:40.674Z,14.91
2023-04-26T13:21:07.880Z,14.54
2023-04-26T13:23:34.913Z,14.33
2023-04-26T13:26:02.069Z,13.34
2023-04-26T13:28:28.936Z,13.45
2023-04-26T13:30:56.192Z,12.57
2023-04-26T13:33:23.274Z,12.68
2023-04-26T13:35:50.184Z,13.07
2023-04-26T13:38:17.483Z,13.71
2023-04-26T13:40:44.898Z,14.11
2023-04-26T13:43:11.835Z,14.52
2023-04-26T13:45:38.952Z,15.27
2023-04-26T13:48:06.055Z,16.20
2023-04-26T13:50:32.990Z,16.26
2023-04-26T13:53:00.135Z,16.23
2023-04-26T13:55:27.044Z,16.24
2023-04-26T13:57:53.944Z,16.93
2023-04-26T14:00:21.252Z,16.05
2023-04-26T14:02:49.442Z,15.51
2023-04-26T14:05:16.761Z,15.93
2023-04-26T14:07:43.881Z,15.59
2023-04-26T14:10:11.150Z,16.32
2023-04-26T14:12:38.049Z,14.93
2023-04-26T14:15:06.354Z,14.47
2023-04-26T14:17:33.665Z,13.21
2023-04-26T14:20:00.833Z,13.44
2023-04-26T14:22:27.845Z,13.98
2023-04-26T14:24:54.729Z,13.17
2023-04-26T14:27:21.592Z,13.91
2023-04-26T14:29:48.432Z,13.36
2023-04-26T14:32:15.392Z,14.54
2023-04-26T14:34:43.190Z,14.94
2023-04-26T14:37:10.597Z,15.84
2023-04-26T14:39:37.680Z,14.81
2023-04-26T14:42:04.924Z,14.01
2023-04-26T14:44:31.812Z,14.99
2023-04-26T14:46:58.745Z,15.15
2023-04-26T14:49:25.905Z,15.77
2023-04-26T14:51:53.655Z,15.91
2023-04-26T14:54:21.350Z,15.44
2023-04-26T14:56:48.914Z,15.35
2023-04-26T14:59:16.301Z,15.41
2023-04-26T15:01:43.438Z,15.55
2023-04-26T15:04:10.526Z,15.19
2023-04-26T15:06:37.552Z,15.11
2023-04-26T15:09:04.735Z,16.20
2023-04-26T15:11:31.592Z,15.29
2023-04-26T15:13:58.433Z,15.24
2023-04-26T15:16:25.375Z,15.85
2023-04-26T15:18:52.381Z,16.17
2023-04-26T15:21:19.931Z,16.58
2023-04-26T15:23:46.840Z,16.42
2023-04-26T15:26:14.520Z,15.05
2023-04-26T15:28:41.465Z,14.92
2023-04-26T15:31:09.836Z,14.47
2023-04-26T15:33:37.013Z,13.48
2023-04-26T15:36:04.175Z,13.31
2023-04-26T15:38:31.066Z,13.57
2023-04-26T15:40:57.917Z,13.68
2023-04-26T15:43:24.864Z,13.85
2023-04-26T15:45:51.932Z,14.05
2023-04-26T15:48:18.937Z,14.09
2023-04-26T15:50:46.421Z,14.09
2023-04-26T15:53:13.313Z,13.90
2023-04-26T15:55:40.213Z,14.37
2023-04-26T15:58:07.257Z,15.07
2023-04-26T16:00:34.408Z,15.35
2023-04-26T16:03:02.190Z,14.40
2023-04-26T16:05:29.299Z,13.95
2023-04-26T16:07:56.466Z,14.42
2023-04-26T16:10:24.058Z,14.43
2023-04-26T16:12:51.131Z,14.64
2023-04-26T16:15:18.020Z,14.66
2023-04-26T16:17:45.060Z,15.11
2023-04-26T16:20:12.181Z,15.58
2023-04-26T16:22:39.128Z,15.81
2023-04-26T16:25:07.168Z,15.17
2023-04-26T16:27:34.301Z,15.34
2023-04-26T16:30:01.390Z,15.70
2023-04-26T16:32:30.731Z,15.22
2023-04-26T16:34:57.629Z,14.89
2023-04-26T16:37:24.566Z,14.81
2023-04-26T16:39:55.783Z,14.23
2023-04-26T16:42:22.850Z,14.59
2023-04-26T16:44:49.741Z,14.65
2023-04-26T16:47:16.619Z,14.44
2023-04-26T16:49:43.570Z,13.66
2023-04-26T16:52:10.488Z,14.09
2023-04-26T16:54:37.470Z,13.86
2023-04-26T16:57:04.689Z,13.48
2023-04-26T16:59:31.611Z,13.43
2023-04-26T17:01:58.614Z,13.99
2023-04-26T17:04:26.479Z,13.57
2023-04-26T17:06:54.698Z,12.98
2023-04-26T17:09:21.571Z,12.96
2023-04-26T17:11:49.997Z,12.77
2023-04-26T17:14:16.915Z,13.06
2023-04-26T17:16:44.215Z,13.21
2023-04-26T17:19:11.387Z,13.73
2023-04-26T17:21:38.257Z,13.26
2023-04-26T17:24:05.340Z,13.49
2023-04-26T17:26:32.256Z,13.94
2023-04-26T17:28:59.228Z,13.62
2023-04-26T17:31:26.342Z,13.66
2023-04-26T17:33:53.269Z,14.01
2023-04-26T17:36:20.974Z,13.55
2023-04-26T17:38:48.690Z,13.98
2023-04-26T17:41:18.203Z,13.39
2023-04-26T17:43:45.518Z,13.49
2023-04-26T17:46:12.591Z,12.98
2023-04-26T17:48:39.762Z,12.95
2023-04-26T17:51:06.843Z,13.98
2023-04-26T17:53:36.897Z,13.86
2023-04-26T17:56:07.372Z,14.04
2023-04-26T17:58:34.529Z,12.65
2023-04-26T18:01:01.635Z,13.69
2023-04-26T18:03:31.702Z,13.63
2023-04-26T18:05:58.789Z,13.23
2023-04-26T18:08:25.978Z,13.48
2023-04-26T18:10:54.150Z,14.13
2023-04-26T18:13:21.179Z,14.65
2023-04-26T18:15:48.370Z,14.78
2023-04-26T18:18:15.364Z,15.03
2023-04-26T18:20:42.364Z,15.13
2023-04-26T18:23:09.234Z,14.28
2023-04-26T18:25:36.426Z,14.72
2023-04-26T18:28:04.520Z,14.28
2023-04-26T18:30:34.223Z,14.38
2023-04-26T18:33:01.181Z,14.27
2023-04-26T18:35:28.161Z,14.75
2023-04-26T18:37:55.117Z,14.42
2023-04-26T18:40:22.065Z,13.69
2023-04-26T18:42:48.921Z,14.84
2023-04-26T18:45:16.055Z,14.36
2023-04-26T18:47:42.943Z,14.90
2023-04-26T18:50:10.092Z,15.24
2023-04-26T18:52:39.687Z,15.25
2023-04-26T18:55:07.770Z,13.85
2023-04-26T18:57:34.612Z,13.25
2023-04-26T19:00:01.844Z,13.42
2023-04-26T19:02:28.908Z,13.29
2023-04-26T19:04:56.083Z,12.04
2023-04-26T19:07:23.762Z,12.40
2023-04-26T19:09:54.702Z,12.38
2023-04-26T19:12:22.484Z,13.24
2023-04-26T19:14:49.339Z,14.27
2023-04-26T19:17:16.369Z,14.47
2023-04-26T19:19:43.442Z,14.72
2023-04-26T19:22:10.463Z,14.15
2023-04-26T19:24:37.406Z,13.98
2023-04-26T19:27:06.593Z,14.24
2023-04-26T19:29:33.452Z,14.01
2023-04-26T19:32:00.533Z,13.86
2023-04-26T19:34:28.109Z,13.52
2023-04-26T19:36:55.069Z,13.08
2023-04-26T19:39:23.553Z,12.88
2023-04-26T19:41:51.406Z,12.69
2023-04-26T19:44:20.438Z,13.07
2023-04-26T19:46:47.366Z,12.91
2023-04-26T19:49:14.334Z,11.27
2023-04-26T19:51:41.232Z,11.72
2023-04-26T19:54:08.070Z,11.09
2023-04-26T19:56:34.706Z,11.09
2023-04-26T19:59:01.579Z,10.75
2023-04-26T20:01:28.710Z,10.37
2023-04-26T20:03:55.983Z,10.58
2023-04-26T20:06:22.953Z,11.00
2023-04-26T20:08:49.834Z,12.20
2023-04-26T20:11:17.610Z,13.20
2023-04-26T20:13:44.743Z,12.99
2023-04-26T20:16:12.852Z,12.37
2023-04-26T20:18:39.991Z,12.33
2023-04-26T20:21:06.915Z,12.11
2023-04-26T20:23:34.024Z,12.27
2023-04-26T20:26:01.068Z,12.89
2023-04-26T20:28:27.952Z,13.01
2023-04-26T20:30:54.977Z,13.01
2023-04-26T20:33:21.938Z,13.06
2023-04-26T20:35:49.434Z,12.56
2023-04-26T20:38:16.310Z,11.99
2023-04-26T20:40:43.361Z,12.18
2023-04-26T20:43:12.103Z,12.77
2023-04-26T20:45:41.029Z,12.04
2023-04-26T20:48:08.325Z,12.22
2023-04-26T20:50:36.603Z,12.86
2023-04-26T20:53:04.368Z,13.12
2023-04-26T20:55:31.251Z,12.25
2023-04-26T20:57:58.114Z,12.42
2023-04-26T21:00:25.075Z,12.71
2023-04-26T21:02:52.182Z,12.44
2023-04-26T21:05:19.093Z,12.73
2023-04-26T21:07:45.969Z,12.66
2023-04-26T21:10:12.883Z,12.60
2023-04-26T21:12:41.825Z,12.60
2023-04-26T21:15:09.128Z,12.57
2023-04-26T21:17:36.486Z,12.59
2023-04-26T21:20:04.379Z,13.26
2023-04-26T21:22:31.266Z,13.15
2023-04-26T21:24:58.124Z,12.96
2023-04-26T21:27:25.100Z,13.57
2023-04-26T21:29:51.972Z,12.77
2023-04-26T21:32:18.804Z,11.93
2023-04-26T21:34:45.554Z,12.08
2023-04-26T21:37:12.444Z,11.97
2023-04-26T21:39:39.358Z,10.28
2023-04-26T21:42:06.324Z,11.66
2023-04-26T21:44:33.160Z,11.39
2023-04-26T21:46:59.964Z,11.30
2023-04-26T21:49:26.940Z,10.79
2023-04-26T21:51:53.625Z,11.22
2023-04-26T21:54:20.564Z,11.33
2023-04-26T21:56:47.404Z,10.89
2023-04-26T21:59:14.758Z,11.06
2023-04-26T22:01:41.636Z,9.78
2023-04-26T22:04:08.412Z,10.97
2023-04-26T22:06:35.299Z,11.86
2023-04-26T22:09:01.972Z,11.72
2023-04-26T22:11:28.801Z,10.57
2023-04-26T22:13:55.582Z,10.12
2023-04-26T22:16:22.490Z,10.47
2023-04-26T22:18:49.446Z,9.97
2023-04-26T22:21:16.279Z,9.49
2023-04-26T22:23:42.944Z,10.09
2023-04-26T22:26:09.773Z,10.42
2023-04-26T22:28:36.466Z,10.22
2023-04-26T22:31:03.528Z,10.92
2023-04-26T22:33:30.403Z,11.18
2023-04-26T22:35:58.203Z,11.05
2023-04-26T22:38:25.612Z,10.30
2023-04-26T22:40:52.754Z,10.01
2023-04-26T22:43:19.660Z,9.90
2023-04-26T22:45:46.541Z,10.11
2023-04-26T22:48:13.515Z,9.35
2023-04-26T22:50:40.704Z,8.57
2023-04-26T22:53:08.351Z,8.61
2023-04-26T22:55:35.241Z,8.49
2023-04-26T22:58:02.137Z,8.67
2023-04-26T23:00:29.013Z,8.57
2023-04-26T23:02:56.087Z,8.90
2023-04-26T23:05:23.061Z,8.19
2023-04-26T23:07:49.982Z,8.33
2023-04-26T23:10:16.896Z,8.58
2023-04-26T23:12:43.793Z,9.73
2023-04-26T23:15:11.748Z,10.85
2023-04-26T23:17:39.008Z,10.73
2023-04-26T23:20:12.365Z,11.22
2023-04-26T23:22:40.604Z,10.71
2023-04-26T23:25:08.949Z,10.56
2023-04-26T23:27:36.216Z,11.09
2023-04-26T23:30:03.742Z,10.47
2023-04-26T23:32:31.118Z,10.02
2023-04-26T23:34:58.018Z,9.86
2023-04-26T23:37:25.050Z,9.95
2023-04-26T23:39:52.305Z,10.08
2023-04-26T23:42:19.175Z,10.19
2023-04-26T23:44:46.168Z,10.85
2023-04-26T23:47:13.102Z,10.87
2023-04-26T23:49:39.967Z,10.83
2023-04-26T23:52:07.328Z,10.62
2023-04-26T23:54:34.234Z,10.21
2023-04-26T23:57:01.228Z,10.54
2023-04-26T23:59:28.124Z,10.05
